sensor_id;sensor_type;location;lat;lon;timestamp;temperature;humidity
70708;SHT30;58277;47.316;18.908;2022-12-18T00:00:55;-1.86;83.96
70708;SHT30;58277;47.316;18.908;2022-12-18T00:03:17;-1.97;83.86
70708;SHT30;58277;47.316;18.908;2022-12-18T00:05:50;-1.97;84.11
70708;SHT30;58277;47.316;18.908;2022-12-18T00:08:13;-1.97;84.01
70708;SHT30;58277;47.316;18.908;2022-12-18T00:10:36;-1.93;83.89
70708;SHT30;58277;47.316;18.908;2022-12-18T00:12:59;-1.94;83.39
70708;SHT30;58277;47.316;18.908;2022-12-18T00:15:27;-1.93;83.16
70708;SHT30;58277;47.316;18.908;2022-12-18T00:17:50;-1.93;83.18
70708;SHT30;58277;47.316;18.908;2022-12-18T00:20:13;-1.93;83.03
70708;SHT30;58277;47.316;18.908;2022-12-18T00:22:35;-1.93;82.94
70708;SHT30;58277;47.316;18.908;2022-12-18T00:24:58;-1.97;83.29
70708;SHT30;58277;47.316;18.908;2022-12-18T00:27:21;-1.93;82.92
70708;SHT30;58277;47.316;18.908;2022-12-18T00:29:43;-1.99;83.23
70708;SHT30;58277;47.316;18.908;2022-12-18T00:32:06;-1.96;83.20
70708;SHT30;58277;47.316;18.908;2022-12-18T00:34:29;-2.03;83.18
70708;SHT30;58277;47.316;18.908;2022-12-18T00:36:51;-2.01;83.78
70708;SHT30;58277;47.316;18.908;2022-12-18T00:39:14;-2.01;83.77
70708;SHT30;58277;47.316;18.908;2022-12-18T00:41:39;-2.06;83.63
70708;SHT30;58277;47.316;18.908;2022-12-18T00:44:20;-2.04;83.96
70708;SHT30;58277;47.316;18.908;2022-12-18T00:46:44;-2.04;83.65
70708;SHT30;58277;47.316;18.908;2022-12-18T00:49:06;-2.10;84.13
70708;SHT30;58277;47.316;18.908;2022-12-18T00:51:29;-2.13;84.35
70708;SHT30;58277;47.316;18.908;2022-12-18T00:53:52;-2.18;84.65
70708;SHT30;58277;47.316;18.908;2022-12-18T00:56:15;-2.07;84.07
70708;SHT30;58277;47.316;18.908;2022-12-18T00:58:37;-2.04;83.83
70708;SHT30;58277;47.316;18.908;2022-12-18T01:01:00;-2.06;83.86
70708;SHT30;58277;47.316;18.908;2022-12-18T01:03:23;-2.04;84.30
70708;SHT30;58277;47.316;18.908;2022-12-18T01:05:46;-2.01;83.83
70708;SHT30;58277;47.316;18.908;2022-12-18T01:08:09;-2.10;83.99
70708;SHT30;58277;47.316;18.908;2022-12-18T01:10:31;-2.14;84.40
70708;SHT30;58277;47.316;18.908;2022-12-18T01:12:55;-2.15;84.39
70708;SHT30;58277;47.316;18.908;2022-12-18T01:15:18;-2.14;84.51
70708;SHT30;58277;47.316;18.908;2022-12-18T01:17:41;-2.14;84.56
70708;SHT30;58277;47.316;18.908;2022-12-18T01:20:04;-2.07;84.54
70708;SHT30;58277;47.316;18.908;2022-12-18T01:22:27;-2.11;84.29
70708;SHT30;58277;47.316;18.908;2022-12-18T01:24:50;-2.14;84.23
70708;SHT30;58277;47.316;18.908;2022-12-18T01:27:13;-2.20;84.31
70708;SHT30;58277;47.316;18.908;2022-12-18T01:29:35;-2.15;84.28
70708;SHT30;58277;47.316;18.908;2022-12-18T01:31:58;-2.23;84.76
70708;SHT30;58277;47.316;18.908;2022-12-18T01:34:21;-2.20;85.13
70708;SHT30;58277;47.316;18.908;2022-12-18T01:36:44;-2.24;85.02
70708;SHT30;58277;47.316;18.908;2022-12-18T01:39:12;-2.28;85.16
70708;SHT30;58277;47.316;18.908;2022-12-18T01:41:37;-2.24;85.18
70708;SHT30;58277;47.316;18.908;2022-12-18T01:44:57;-2.23;85.10
70708;SHT30;58277;47.316;18.908;2022-12-18T01:50:19;-2.27;85.41
70708;SHT30;58277;47.316;18.908;2022-12-18T01:52:44;-2.26;85.32
70708;SHT30;58277;47.316;18.908;2022-12-18T01:55:10;-2.26;85.72
70708;SHT30;58277;47.316;18.908;2022-12-18T01:57:34;-2.24;85.37
70708;SHT30;58277;47.316;18.908;2022-12-18T02:00:03;-2.26;85.40
70708;SHT30;58277;47.316;18.908;2022-12-18T02:02:34;-2.21;85.42
70708;SHT30;58277;47.316;18.908;2022-12-18T02:04:57;-2.28;85.29
70708;SHT30;58277;47.316;18.908;2022-12-18T02:10:29;-2.30;85.48
70708;SHT30;58277;47.316;18.908;2022-12-18T02:12:58;-2.27;85.52
70708;SHT30;58277;47.316;18.908;2022-12-18T02:15:31;-2.33;85.95
70708;SHT30;58277;47.316;18.908;2022-12-18T02:18:05;-2.38;85.62
70708;SHT30;58277;47.316;18.908;2022-12-18T02:20:33;-2.28;85.56
70708;SHT30;58277;47.316;18.908;2022-12-18T02:23:19;-2.30;85.11
70708;SHT30;58277;47.316;18.908;2022-12-18T02:26:40;-2.24;84.75
70708;SHT30;58277;47.316;18.908;2022-12-18T02:29:04;-2.27;85.49
70708;SHT30;58277;47.316;18.908;2022-12-18T02:31:36;-2.31;85.50
70708;SHT30;58277;47.316;18.908;2022-12-18T02:34:03;-2.34;85.71
70708;SHT30;58277;47.316;18.908;2022-12-18T02:36:32;-2.33;84.96
70708;SHT30;58277;47.316;18.908;2022-12-18T02:38:56;-2.31;85.02
70708;SHT30;58277;47.316;18.908;2022-12-18T02:41:19;-2.36;85.35
70708;SHT30;58277;47.316;18.908;2022-12-18T02:44:00;-2.34;85.46
70708;SHT30;58277;47.316;18.908;2022-12-18T02:46:32;-2.33;85.17
70708;SHT30;58277;47.316;18.908;2022-12-18T02:49:12;-2.40;85.44
70708;SHT30;58277;47.316;18.908;2022-12-18T02:57:23;-2.30;84.93
70708;SHT30;58277;47.316;18.908;2022-12-18T03:05:38;-2.24;84.75
70708;SHT30;58277;47.316;18.908;2022-12-18T03:08:10;-2.34;84.74
70708;SHT30;58277;47.316;18.908;2022-12-18T03:10:42;-2.40;85.01
70708;SHT30;58277;47.316;18.908;2022-12-18T03:13:13;-2.31;84.96
70708;SHT30;58277;47.316;18.908;2022-12-18T03:15:41;-2.33;84.70
70708;SHT30;58277;47.316;18.908;2022-12-18T03:18:14;-2.30;84.49
70708;SHT30;58277;47.316;18.908;2022-12-18T03:20:39;-2.34;84.70
70708;SHT30;58277;47.316;18.908;2022-12-18T03:23:11;-2.30;84.88
70708;SHT30;58277;47.316;18.908;2022-12-18T03:25:38;-2.36;84.89
70708;SHT30;58277;47.316;18.908;2022-12-18T03:28:02;-2.40;84.87
70708;SHT30;58277;47.316;18.908;2022-12-18T03:30:28;-2.41;84.83
70708;SHT30;58277;47.316;18.908;2022-12-18T03:33:07;-2.41;84.42
70708;SHT30;58277;47.316;18.908;2022-12-18T03:35:37;-2.36;84.18
70708;SHT30;58277;47.316;18.908;2022-12-18T03:38:01;-2.44;84.33
70708;SHT30;58277;47.316;18.908;2022-12-18T03:40:31;-2.49;84.90
70708;SHT30;58277;47.316;18.908;2022-12-18T03:43:20;-2.49;84.57
70708;SHT30;58277;47.316;18.908;2022-12-18T03:45:52;-2.51;84.93
70708;SHT30;58277;47.316;18.908;2022-12-18T03:48:33;-2.52;85.14
70708;SHT30;58277;47.316;18.908;2022-12-18T03:51:24;-2.49;85.14
70708;SHT30;58277;47.316;18.908;2022-12-18T03:53:55;-2.57;85.25
70708;SHT30;58277;47.316;18.908;2022-12-18T03:56:27;-2.54;85.01
70708;SHT30;58277;47.316;18.908;2022-12-18T03:58:52;-2.55;84.97
70708;SHT30;58277;47.316;18.908;2022-12-18T04:01:23;-2.52;85.02
70708;SHT30;58277;47.316;18.908;2022-12-18T04:03:49;-2.54;84.96
70708;SHT30;58277;47.316;18.908;2022-12-18T04:06:14;-2.55;85.22
70708;SHT30;58277;47.316;18.908;2022-12-18T04:08:40;-2.59;85.53
70708;SHT30;58277;47.316;18.908;2022-12-18T04:11:06;-2.58;85.43
70708;SHT30;58277;47.316;18.908;2022-12-18T04:13:32;-2.62;85.19
70708;SHT30;58277;47.316;18.908;2022-12-18T04:15:59;-2.58;85.55
70708;SHT30;58277;47.316;18.908;2022-12-18T04:18:22;-2.62;85.30
70708;SHT30;58277;47.316;18.908;2022-12-18T04:20:45;-2.68;85.25
70708;SHT30;58277;47.316;18.908;2022-12-18T04:23:08;-2.64;85.23
70708;SHT30;58277;47.316;18.908;2022-12-18T04:25:31;-2.57;84.89
70708;SHT30;58277;47.316;18.908;2022-12-18T04:28:01;-2.66;85.14
70708;SHT30;58277;47.316;18.908;2022-12-18T04:30:24;-2.64;85.88
70708;SHT30;58277;47.316;18.908;2022-12-18T04:32:47;-2.66;85.22
70708;SHT30;58277;47.316;18.908;2022-12-18T04:35:14;-2.66;85.76
70708;SHT30;58277;47.316;18.908;2022-12-18T04:37:38;-2.75;85.71
70708;SHT30;58277;47.316;18.908;2022-12-18T04:40:01;-2.80;85.72
70708;SHT30;58277;47.316;18.908;2022-12-18T04:42:32;-2.80;86.16
70708;SHT30;58277;47.316;18.908;2022-12-18T04:44:55;-2.85;86.30
70708;SHT30;58277;47.316;18.908;2022-12-18T04:47:17;-2.79;86.16
70708;SHT30;58277;47.316;18.908;2022-12-18T04:49:40;-2.69;85.91
70708;SHT30;58277;47.316;18.908;2022-12-18T04:52:03;-2.73;85.82
70708;SHT30;58277;47.316;18.908;2022-12-18T04:54:26;-2.85;85.69
70708;SHT30;58277;47.316;18.908;2022-12-18T04:56:48;-2.76;86.03
70708;SHT30;58277;47.316;18.908;2022-12-18T04:59:11;-2.90;86.04
70708;SHT30;58277;47.316;18.908;2022-12-18T05:01:54;-2.85;85.79
70708;SHT30;58277;47.316;18.908;2022-12-18T05:04:17;-2.92;85.88
70708;SHT30;58277;47.316;18.908;2022-12-18T05:06:41;-2.90;85.70
70708;SHT30;58277;47.316;18.908;2022-12-18T05:09:03;-2.93;85.63
70708;SHT30;58277;47.316;18.908;2022-12-18T05:11:27;-2.87;85.87
70708;SHT30;58277;47.316;18.908;2022-12-18T05:13:49;-3.00;86.11
70708;SHT30;58277;47.316;18.908;2022-12-18T05:16:13;-3.06;86.81
70708;SHT30;58277;47.316;18.908;2022-12-18T05:18:36;-2.96;86.06
70708;SHT30;58277;47.316;18.908;2022-12-18T05:20:59;-2.93;86.14
70708;SHT30;58277;47.316;18.908;2022-12-18T05:23:23;-2.90;86.08
70708;SHT30;58277;47.316;18.908;2022-12-18T05:26:05;-2.96;85.99
70708;SHT30;58277;47.316;18.908;2022-12-18T05:28:30;-2.93;85.94
70708;SHT30;58277;47.316;18.908;2022-12-18T05:30:55;-2.95;85.86
70708;SHT30;58277;47.316;18.908;2022-12-18T05:33:19;-2.99;86.14
70708;SHT30;58277;47.316;18.908;2022-12-18T05:35:42;-3.01;85.89
70708;SHT30;58277;47.316;18.908;2022-12-18T05:38:05;-3.03;86.08
70708;SHT30;58277;47.316;18.908;2022-12-18T05:40:27;-3.07;86.57
70708;SHT30;58277;47.316;18.908;2022-12-18T05:42:51;-3.01;86.29
70708;SHT30;58277;47.316;18.908;2022-12-18T05:45:14;-3.13;86.61
70708;SHT30;58277;47.316;18.908;2022-12-18T05:47:36;-3.18;86.70
70708;SHT30;58277;47.316;18.908;2022-12-18T05:49:59;-3.13;86.97
70708;SHT30;58277;47.316;18.908;2022-12-18T05:52:23;-3.03;86.60
70708;SHT30;58277;47.316;18.908;2022-12-18T05:54:46;-3.06;86.40
70708;SHT30;58277;47.316;18.908;2022-12-18T05:57:08;-3.03;85.85
70708;SHT30;58277;47.316;18.908;2022-12-18T05:59:31;-3.21;85.99
70708;SHT30;58277;47.316;18.908;2022-12-18T06:01:54;-3.18;86.05
70708;SHT30;58277;47.316;18.908;2022-12-18T06:04:17;-3.30;86.82
70708;SHT30;58277;47.316;18.908;2022-12-18T06:06:39;-3.40;87.02
70708;SHT30;58277;47.316;18.908;2022-12-18T06:09:03;-3.40;86.88
70708;SHT30;58277;47.316;18.908;2022-12-18T06:11:30;-3.38;86.82
70708;SHT30;58277;47.316;18.908;2022-12-18T06:13:54;-3.40;86.86
70708;SHT30;58277;47.316;18.908;2022-12-18T06:16:20;-3.48;87.13
70708;SHT30;58277;47.316;18.908;2022-12-18T06:18:43;-3.47;87.42
70708;SHT30;58277;47.316;18.908;2022-12-18T06:21:06;-3.47;87.48
70708;SHT30;58277;47.316;18.908;2022-12-18T06:23:28;-3.50;87.55
70708;SHT30;58277;47.316;18.908;2022-12-18T06:25:52;-3.40;87.57
70708;SHT30;58277;47.316;18.908;2022-12-18T06:28:15;-3.31;86.58
70708;SHT30;58277;47.316;18.908;2022-12-18T06:30:37;-3.28;86.49
70708;SHT30;58277;47.316;18.908;2022-12-18T06:33:00;-3.25;86.36
70708;SHT30;58277;47.316;18.908;2022-12-18T06:35:23;-3.28;85.96
70708;SHT30;58277;47.316;18.908;2022-12-18T06:37:45;-3.35;86.35
70708;SHT30;58277;47.316;18.908;2022-12-18T06:40:08;-3.24;86.28
70708;SHT30;58277;47.316;18.908;2022-12-18T06:42:31;-3.25;85.73
70708;SHT30;58277;47.316;18.908;2022-12-18T06:44:54;-3.24;86.25
70708;SHT30;58277;47.316;18.908;2022-12-18T06:47:17;-3.23;85.87
70708;SHT30;58277;47.316;18.908;2022-12-18T06:49:40;-3.10;85.60
70708;SHT30;58277;47.316;18.908;2022-12-18T06:52:03;-3.18;85.99
70708;SHT30;58277;47.316;18.908;2022-12-18T06:54:26;-3.08;85.56
70708;SHT30;58277;47.316;18.908;2022-12-18T06:56:48;-3.10;84.68
70708;SHT30;58277;47.316;18.908;2022-12-18T06:59:13;-3.08;84.55
70708;SHT30;58277;47.316;18.908;2022-12-18T07:01:42;-3.06;84.05
70708;SHT30;58277;47.316;18.908;2022-12-18T07:04:30;-2.90;83.98
70708;SHT30;58277;47.316;18.908;2022-12-18T07:06:52;-2.86;83.72
70708;SHT30;58277;47.316;18.908;2022-12-18T07:09:16;-2.77;83.81
70708;SHT30;58277;47.316;18.908;2022-12-18T07:11:38;-2.66;83.65
70708;SHT30;58277;47.316;18.908;2022-12-18T07:14:01;-2.59;83.35
70708;SHT30;58277;47.316;18.908;2022-12-18T07:16:24;-2.57;83.09
70708;SHT30;58277;47.316;18.908;2022-12-18T07:18:47;-2.55;82.78
70708;SHT30;58277;47.316;18.908;2022-12-18T07:21:15;-2.41;82.89
70708;SHT30;58277;47.316;18.908;2022-12-18T07:23:39;-2.37;82.86
70708;SHT30;58277;47.316;18.908;2022-12-18T07:26:07;-2.27;82.53
70708;SHT30;58277;47.316;18.908;2022-12-18T07:28:31;-2.15;81.99
70708;SHT30;58277;47.316;18.908;2022-12-18T07:30:54;-2.14;82.01
70708;SHT30;58277;47.316;18.908;2022-12-18T07:33:17;-2.09;82.04
70708;SHT30;58277;47.316;18.908;2022-12-18T07:35:40;-2.03;81.30
70708;SHT30;58277;47.316;18.908;2022-12-18T07:38:03;-2.01;81.15
70708;SHT30;58277;47.316;18.908;2022-12-18T07:40:25;-1.96;80.95
70708;SHT30;58277;47.316;18.908;2022-12-18T07:42:48;-1.99;81.26
70708;SHT30;58277;47.316;18.908;2022-12-18T07:45:11;-2.00;81.25
70708;SHT30;58277;47.316;18.908;2022-12-18T07:47:35;-1.97;82.11
70708;SHT30;58277;47.316;18.908;2022-12-18T07:49:58;-1.91;81.79
70708;SHT30;58277;47.316;18.908;2022-12-18T07:52:21;-1.94;81.22
70708;SHT30;58277;47.316;18.908;2022-12-18T07:54:47;-1.87;80.89
70708;SHT30;58277;47.316;18.908;2022-12-18T07:57:12;-1.90;81.62
70708;SHT30;58277;47.316;18.908;2022-12-18T07:59:54;-1.87;81.71
70708;SHT30;58277;47.316;18.908;2022-12-18T08:02:17;-1.85;81.70
70708;SHT30;58277;47.316;18.908;2022-12-18T08:04:40;-1.82;81.71
70708;SHT30;58277;47.316;18.908;2022-12-18T08:07:02;-1.69;81.53
70708;SHT30;58277;47.316;18.908;2022-12-18T08:09:25;-1.63;81.28
70708;SHT30;58277;47.316;18.908;2022-12-18T08:11:48;-1.68;81.68
70708;SHT30;58277;47.316;18.908;2022-12-18T08:14:10;-1.59;81.54
70708;SHT30;58277;47.316;18.908;2022-12-18T08:16:33;-1.40;81.06
70708;SHT30;58277;47.316;18.908;2022-12-18T08:18:56;-1.32;80.94
70708;SHT30;58277;47.316;18.908;2022-12-18T08:21:27;-1.35;80.93
70708;SHT30;58277;47.316;18.908;2022-12-18T08:23:52;-1.44;80.95
70708;SHT30;58277;47.316;18.908;2022-12-18T08:26:15;-1.41;80.94
70708;SHT30;58277;47.316;18.908;2022-12-18T08:28:38;-1.28;80.66
70708;SHT30;58277;47.316;18.908;2022-12-18T08:31:11;-1.23;80.90
70708;SHT30;58277;47.316;18.908;2022-12-18T08:33:34;-1.18;79.79
70708;SHT30;58277;47.316;18.908;2022-12-18T08:36:01;-1.14;79.67
70708;SHT30;58277;47.316;18.908;2022-12-18T08:38:24;-1.05;79.50
70708;SHT30;58277;47.316;18.908;2022-12-18T08:40:46;-1.07;79.29
70708;SHT30;58277;47.316;18.908;2022-12-18T08:43:10;-1.01;80.12
70708;SHT30;58277;47.316;18.908;2022-12-18T08:45:51;-0.97;79.29
70708;SHT30;58277;47.316;18.908;2022-12-18T08:48:14;-0.94;79.87
70708;SHT30;58277;47.316;18.908;2022-12-18T08:50:43;-0.90;79.50
70708;SHT30;58277;47.316;18.908;2022-12-18T08:53:06;-0.85;79.76
70708;SHT30;58277;47.316;18.908;2022-12-18T08:55:29;-0.92;80.05
70708;SHT30;58277;47.316;18.908;2022-12-18T08:57:51;-0.85;79.99
70708;SHT30;58277;47.316;18.908;2022-12-18T09:00:14;-0.75;80.18
70708;SHT30;58277;47.316;18.908;2022-12-18T09:02:38;-0.64;79.07
70708;SHT30;58277;47.316;18.908;2022-12-18T09:05:01;-0.54;78.70
70708;SHT30;58277;47.316;18.908;2022-12-18T09:07:23;-0.45;78.20
70708;SHT30;58277;47.316;18.908;2022-12-18T09:09:46;-0.37;78.16
70708;SHT30;58277;47.316;18.908;2022-12-18T09:12:09;-0.37;78.27
70708;SHT30;58277;47.316;18.908;2022-12-18T09:14:32;-0.22;78.36
70708;SHT30;58277;47.316;18.908;2022-12-18T09:16:55;-0.08;78.54
70708;SHT30;58277;47.316;18.908;2022-12-18T09:19:17;-0.07;77.73
70708;SHT30;58277;47.316;18.908;2022-12-18T09:21:40;-0.10;77.97
70708;SHT30;58277;47.316;18.908;2022-12-18T09:24:12;-0.11;78.08
70708;SHT30;58277;47.316;18.908;2022-12-18T09:26:35;-0.01;78.08
70708;SHT30;58277;47.316;18.908;2022-12-18T09:28:59;0.01;78.49
70708;SHT30;58277;47.316;18.908;2022-12-18T09:31:23;-0.01;78.77
70708;SHT30;58277;47.316;18.908;2022-12-18T09:33:47;0.07;78.25
70708;SHT30;58277;47.316;18.908;2022-12-18T09:36:11;0.09;78.06
70708;SHT30;58277;47.316;18.908;2022-12-18T09:38:35;0.17;77.89
70708;SHT30;58277;47.316;18.908;2022-12-18T09:43:52;0.27;77.55
70708;SHT30;58277;47.316;18.908;2022-12-18T09:46:19;0.28;76.99
70708;SHT30;58277;47.316;18.908;2022-12-18T09:48:49;0.31;77.20
70708;SHT30;58277;47.316;18.908;2022-12-18T09:51:19;0.20;77.27
70708;SHT30;58277;47.316;18.908;2022-12-18T09:53:47;0.34;76.75
70708;SHT30;58277;47.316;18.908;2022-12-18T09:56:17;0.40;75.84
70708;SHT30;58277;47.316;18.908;2022-12-18T09:58:45;0.64;75.21
70708;SHT30;58277;47.316;18.908;2022-12-18T10:01:11;0.45;75.48
70708;SHT30;58277;47.316;18.908;2022-12-18T10:03:34;0.45;75.40
70708;SHT30;58277;47.316;18.908;2022-12-18T10:06:11;0.55;75.77
70708;SHT30;58277;47.316;18.908;2022-12-18T10:12:01;0.62;76.21
70708;SHT30;58277;47.316;18.908;2022-12-18T10:14:40;0.69;76.49
70708;SHT30;58277;47.316;18.908;2022-12-18T10:19:59;0.66;76.08
70708;SHT30;58277;47.316;18.908;2022-12-18T10:27:47;0.83;75.07
70708;SHT30;58277;47.316;18.908;2022-12-18T10:30:20;0.83;74.96
70708;SHT30;58277;47.316;18.908;2022-12-18T10:32:43;0.68;74.71
70708;SHT30;58277;47.316;18.908;2022-12-18T10:35:15;0.64;74.30
70708;SHT30;58277;47.316;18.908;2022-12-18T10:38:20;0.69;74.98
70708;SHT30;58277;47.316;18.908;2022-12-18T10:41:01;0.79;74.49
70708;SHT30;58277;47.316;18.908;2022-12-18T10:43:34;0.90;74.24
70708;SHT30;58277;47.316;18.908;2022-12-18T10:46:19;0.96;73.98
70708;SHT30;58277;47.316;18.908;2022-12-18T10:48:56;1.03;74.64
70708;SHT30;58277;47.316;18.908;2022-12-18T10:51:23;1.12;74.30
70708;SHT30;58277;47.316;18.908;2022-12-18T10:53:55;1.13;73.53
70708;SHT30;58277;47.316;18.908;2022-12-18T10:56:20;1.26;73.23
70708;SHT30;58277;47.316;18.908;2022-12-18T10:58:55;1.37;73.60
70708;SHT30;58277;47.316;18.908;2022-12-18T11:01:18;1.37;73.35
70708;SHT30;58277;47.316;18.908;2022-12-18T11:03:47;1.40;72.85
70708;SHT30;58277;47.316;18.908;2022-12-18T11:06:24;1.51;72.52
70708;SHT30;58277;47.316;18.908;2022-12-18T11:09:17;1.35;72.52
70708;SHT30;58277;47.316;18.908;2022-12-18T11:11:48;1.23;72.81
70708;SHT30;58277;47.316;18.908;2022-12-18T11:14:17;1.35;73.04
70708;SHT30;58277;47.316;18.908;2022-12-18T11:16:46;1.50;72.70
70708;SHT30;58277;47.316;18.908;2022-12-18T11:19:37;1.51;71.62
70708;SHT30;58277;47.316;18.908;2022-12-18T11:22:19;1.51;71.83
70708;SHT30;58277;47.316;18.908;2022-12-18T11:24:42;1.72;69.46
70708;SHT30;58277;47.316;18.908;2022-12-18T11:27:23;1.85;69.72
70708;SHT30;58277;47.316;18.908;2022-12-18T11:29:50;1.83;70.47
70708;SHT30;58277;47.316;18.908;2022-12-18T11:32:35;1.78;70.57
70708;SHT30;58277;47.316;18.908;2022-12-18T11:35:21;1.89;70.27
70708;SHT30;58277;47.316;18.908;2022-12-18T11:37:53;1.98;71.00
70708;SHT30;58277;47.316;18.908;2022-12-18T11:40:27;1.95;70.39
70708;SHT30;58277;47.316;18.908;2022-12-18T11:43:07;2.09;69.60
70708;SHT30;58277;47.316;18.908;2022-12-18T11:45:41;2.10;69.07
70708;SHT30;58277;47.316;18.908;2022-12-18T11:50:45;2.30;69.53
70708;SHT30;58277;47.316;18.908;2022-12-18T11:53:12;2.37;67.00
70708;SHT30;58277;47.316;18.908;2022-12-18T11:55:49;2.19;67.26
70708;SHT30;58277;47.316;18.908;2022-12-18T12:01:18;2.30;67.24
70708;SHT30;58277;47.316;18.908;2022-12-18T12:12:30;2.06;65.75
70708;SHT30;58277;47.316;18.908;2022-12-18T12:15:28;2.02;66.94
70708;SHT30;58277;47.316;18.908;2022-12-18T12:20:52;2.30;66.51
70708;SHT30;58277;47.316;18.908;2022-12-18T12:26:11;2.51;63.21
70708;SHT30;58277;47.316;18.908;2022-12-18T12:37:15;2.52;65.13
70708;SHT30;58277;47.316;18.908;2022-12-18T12:39:37;2.48;64.40
70708;SHT30;58277;47.316;18.908;2022-12-18T12:42:01;2.66;63.39
70708;SHT30;58277;47.316;18.908;2022-12-18T12:44:47;2.54;63.66
70708;SHT30;58277;47.316;18.908;2022-12-18T12:47:25;2.66;63.31
70708;SHT30;58277;47.316;18.908;2022-12-18T12:49:49;2.55;64.00
70708;SHT30;58277;47.316;18.908;2022-12-18T12:52:47;2.62;64.03
70708;SHT30;58277;47.316;18.908;2022-12-18T12:55:18;2.64;62.68
70708;SHT30;58277;47.316;18.908;2022-12-18T12:57:54;2.55;61.76
70708;SHT30;58277;47.316;18.908;2022-12-18T13:00:19;2.55;62.18
70708;SHT30;58277;47.316;18.908;2022-12-18T13:08:11;2.36;63.91
70708;SHT30;58277;47.316;18.908;2022-12-18T13:10:41;2.50;62.77
70708;SHT30;58277;47.316;18.908;2022-12-18T13:13:10;2.60;62.79
70708;SHT30;58277;47.316;18.908;2022-12-18T13:16:03;2.48;63.65
70708;SHT30;58277;47.316;18.908;2022-12-18T13:18:28;2.57;64.06
70708;SHT30;58277;47.316;18.908;2022-12-18T13:23:26;2.61;64.88
70708;SHT30;58277;47.316;18.908;2022-12-18T13:25:51;2.45;64.68
70708;SHT30;58277;47.316;18.908;2022-12-18T13:28:16;2.30;64.33
70708;SHT30;58277;47.316;18.908;2022-12-18T13:35:38;2.07;66.55
70708;SHT30;58277;47.316;18.908;2022-12-18T13:40:55;2.02;66.02
70708;SHT30;58277;47.316;18.908;2022-12-18T13:45:46;2.00;67.22
70708;SHT30;58277;47.316;18.908;2022-12-18T13:48:18;1.96;67.80
70708;SHT30;58277;47.316;18.908;2022-12-18T13:50:42;2.10;67.69
70708;SHT30;58277;47.316;18.908;2022-12-18T13:53:05;2.26;67.72
70708;SHT30;58277;47.316;18.908;2022-12-18T13:55:27;2.21;68.05
70708;SHT30;58277;47.316;18.908;2022-12-18T13:58:03;2.33;67.82
70708;SHT30;58277;47.316;18.908;2022-12-18T14:00:29;2.16;68.28
70708;SHT30;58277;47.316;18.908;2022-12-18T14:02:52;2.24;68.28
70708;SHT30;58277;47.316;18.908;2022-12-18T14:07:45;2.20;68.95
70708;SHT30;58277;47.316;18.908;2022-12-18T14:10:15;2.10;69.37
70708;SHT30;58277;47.316;18.908;2022-12-18T14:13:05;1.98;69.95
70708;SHT30;58277;47.316;18.908;2022-12-18T14:15:40;1.98;70.15
70708;SHT30;58277;47.316;18.908;2022-12-18T14:20:49;1.75;70.63
70708;SHT30;58277;47.316;18.908;2022-12-18T14:23:41;1.73;70.26
70708;SHT30;58277;47.316;18.908;2022-12-18T14:26:25;1.65;70.47
70708;SHT30;58277;47.316;18.908;2022-12-18T14:28:50;1.66;70.62
70708;SHT30;58277;47.316;18.908;2022-12-18T14:31:21;1.52;71.00
70708;SHT30;58277;47.316;18.908;2022-12-18T14:33:44;1.50;71.26
70708;SHT30;58277;47.316;18.908;2022-12-18T14:36:15;1.47;71.45
70708;SHT30;58277;47.316;18.908;2022-12-18T14:38:40;1.33;72.15
70708;SHT30;58277;47.316;18.908;2022-12-18T14:41:11;1.23;72.64
70708;SHT30;58277;47.316;18.908;2022-12-18T14:43:36;1.16;73.06
70708;SHT30;58277;47.316;18.908;2022-12-18T14:46:01;1.12;73.38
70708;SHT30;58277;47.316;18.908;2022-12-18T14:48:40;0.97;73.83
70708;SHT30;58277;47.316;18.908;2022-12-18T14:51:16;0.80;74.53
70708;SHT30;58277;47.316;18.908;2022-12-18T14:53:42;0.87;74.84
70708;SHT30;58277;47.316;18.908;2022-12-18T14:56:21;0.87;75.40
70708;SHT30;58277;47.316;18.908;2022-12-18T14:58:50;0.87;75.09
70708;SHT30;58277;47.316;18.908;2022-12-18T15:01:21;0.76;75.33
70708;SHT30;58277;47.316;18.908;2022-12-18T15:03:45;0.65;75.63
70708;SHT30;58277;47.316;18.908;2022-12-18T15:06:21;0.58;76.35
70708;SHT30;58277;47.316;18.908;2022-12-18T15:08:46;0.54;76.86
70708;SHT30;58277;47.316;18.908;2022-12-18T15:12:32;0.49;76.68
70708;SHT30;58277;47.316;18.908;2022-12-18T15:14:33;0.47;77.40
70708;SHT30;58277;47.316;18.908;2022-12-18T15:16:59;0.38;77.99
70708;SHT30;58277;47.316;18.908;2022-12-18T15:19:31;0.40;77.77
70708;SHT30;58277;47.316;18.908;2022-12-18T15:21:55;0.24;78.55
70708;SHT30;58277;47.316;18.908;2022-12-18T15:24:31;0.17;78.26
70708;SHT30;58277;47.316;18.908;2022-12-18T15:26:54;0.09;78.63
70708;SHT30;58277;47.316;18.908;2022-12-18T15:29:23;0.06;79.00
70708;SHT30;58277;47.316;18.908;2022-12-18T15:32:02;-0.10;80.26
70708;SHT30;58277;47.316;18.908;2022-12-18T15:34:26;-0.04;79.69
70708;SHT30;58277;47.316;18.908;2022-12-18T15:36:50;-0.03;79.65
70708;SHT30;58277;47.316;18.908;2022-12-18T15:39:13;-0.10;79.27
70708;SHT30;58277;47.316;18.908;2022-12-18T15:41:36;-0.03;79.85
70708;SHT30;58277;47.316;18.908;2022-12-18T15:44:23;-0.10;80.12
70708;SHT30;58277;47.316;18.908;2022-12-18T15:47:10;-0.08;79.80
70708;SHT30;58277;47.316;18.908;2022-12-18T15:49:34;-0.21;80.38
70708;SHT30;58277;47.316;18.908;2022-12-18T15:51:59;-0.34;80.61
70708;SHT30;58277;47.316;18.908;2022-12-18T15:54:22;-0.29;80.74
70708;SHT30;58277;47.316;18.908;2022-12-18T15:57:09;-0.19;80.88
70708;SHT30;58277;47.316;18.908;2022-12-18T15:59:47;-0.24;80.53
70708;SHT30;58277;47.316;18.908;2022-12-18T16:02:16;-0.31;80.82
70708;SHT30;58277;47.316;18.908;2022-12-18T16:04:40;-0.41;81.47
70708;SHT30;58277;47.316;18.908;2022-12-18T16:07:03;-0.31;81.15
70708;SHT30;58277;47.316;18.908;2022-12-18T16:09:46;-0.21;81.00
70708;SHT30;58277;47.316;18.908;2022-12-18T16:12:16;-0.27;81.56
70708;SHT30;58277;47.316;18.908;2022-12-18T16:14:39;-0.27;81.21
70708;SHT30;58277;47.316;18.908;2022-12-18T16:17:05;-0.35;81.06
70708;SHT30;58277;47.316;18.908;2022-12-18T16:19:29;-0.34;81.50
70708;SHT30;58277;47.316;18.908;2022-12-18T16:21:53;-0.42;81.73
70708;SHT30;58277;47.316;18.908;2022-12-18T16:24:21;-0.38;81.49
70708;SHT30;58277;47.316;18.908;2022-12-18T16:26:45;-0.51;82.06
70708;SHT30;58277;47.316;18.908;2022-12-18T16:29:09;-0.58;82.31
70708;SHT30;58277;47.316;18.908;2022-12-18T16:31:32;-0.62;82.47
70708;SHT30;58277;47.316;18.908;2022-12-18T16:36:43;-0.54;82.62
70708;SHT30;58277;47.316;18.908;2022-12-18T16:39:06;-0.51;82.20
70708;SHT30;58277;47.316;18.908;2022-12-18T16:41:28;-0.58;82.12
70708;SHT30;58277;47.316;18.908;2022-12-18T16:43:55;-0.56;82.52
70708;SHT30;58277;47.316;18.908;2022-12-18T16:46:19;-0.54;82.41
70708;SHT30;58277;47.316;18.908;2022-12-18T16:48:42;-0.59;82.65
70708;SHT30;58277;47.316;18.908;2022-12-18T16:51:05;-0.64;82.73